sensor_id;sensor_type;location;lat;lon;timestamp;P1;durP1;ratioP1;P2;durP2;ratioP2
16326;SDS011;34812;49.846;9.610;2023-01-01T00:00:12;133.40;;;119.03;;
16326;SDS011;34812;49.846;9.610;2023-01-01T00:01:14;108.33;;;97.00;;
16326;SDS011;34812;49.846;9.610;2023-01-01T00:02:18;111.87;;;99.83;;
16326;SDS011;34812;49.846;9.610;2023-01-01T00:03:18;103.77;;;92.57;;
16326;SDS011;34812;49.846;9.610;2023-01-01T00:04:20;96.80;;;84.03;;
16326;SDS011;34812;49.846;9.610;2023-01-01T00:05:21;76.50;;;65.17;;
16326;SDS011;34812;49.846;9.610;2023-01-01T00:06:22;63.00;;;50.90;;
16326;SDS011;34812;49.846;9.610;2023-01-01T00:07:23;46.50;;;39.43;;
16326;SDS011;34812;49.846;9.610;2023-01-01T00:08:25;35.87;;;30.63;;
16326;SDS011;34812;49.846;9.610;2023-01-01T00:09:27;21.97;;;19.60;;
16326;SDS011;34812;49.846;9.610;2023-01-01T00:10:46;16.47;;;14.40;;
16326;SDS011;34812;49.846;9.610;2023-01-01T00:11:47;15.63;;;14.00;;
16326;SDS011;34812;49.846;9.610;2023-01-01T00:12:50;17.67;;;13.67;;
16326;SDS011;34812;49.846;9.610;2023-01-01T00:13:51;15.30;;;13.30;;
16326;SDS011;34812;49.846;9.610;2023-01-01T00:14:52;14.10;;;11.50;;
16326;SDS011;34812;49.846;9.610;2023-01-01T00:15:53;14.77;;;12.03;;
16326;SDS011;34812;49.846;9.610;2023-01-01T00:16:55;12.67;;;11.37;;
16326;SDS011;34812;49.846;9.610;2023-01-01T00:17:55;11.10;;;9.97;;
16326;SDS011;34812;49.846;9.610;2023-01-01T00:18:57;13.57;;;9.93;;
16326;SDS011;34812;49.846;9.610;2023-01-01T00:19:58;12.10;;;10.80;;
16326;SDS011;34812;49.846;9.610;2023-01-01T00:21:03;9.93;;;8.43;;
16326;SDS011;34812;49.846;9.610;2023-01-01T00:22:06;9.37;;;8.47;;
16326;SDS011;34812;49.846;9.610;2023-01-01T00:23:08;10.67;;;9.07;;
16326;SDS011;34812;49.846;9.610;2023-01-01T00:24:09;11.27;;;8.33;;
16326;SDS011;34812;49.846;9.610;2023-01-01T00:25:10;10.80;;;9.70;;
16326;SDS011;34812;49.846;9.610;2023-01-01T00:26:15;8.77;;;7.83;;
16326;SDS011;34812;49.846;9.610;2023-01-01T00:27:17;9.23;;;8.33;;
16326;SDS011;34812;49.846;9.610;2023-01-01T00:28:19;8.23;;;7.37;;
16326;SDS011;34812;49.846;9.610;2023-01-01T00:29:21;9.13;;;8.23;;
16326;SDS011;34812;49.846;9.610;2023-01-01T00:30:22;9.30;;;8.40;;
16326;SDS011;34812;49.846;9.610;2023-01-01T00:31:24;8.33;;;7.53;;
16326;SDS011;34812;49.846;9.610;2023-01-01T00:32:25;9.77;;;8.87;;
16326;SDS011;34812;49.846;9.610;2023-01-01T00:33:27;9.00;;;8.10;;
16326;SDS011;34812;49.846;9.610;2023-01-01T00:34:28;8.27;;;6.50;;
16326;SDS011;34812;49.846;9.610;2023-01-01T00:35:29;7.80;;;7.00;;
16326;SDS011;34812;49.846;9.610;2023-01-01T00:36:31;8.97;;;7.37;;
16326;SDS011;34812;49.846;9.610;2023-01-01T00:37:32;9.77;;;8.17;;
16326;SDS011;34812;49.846;9.610;2023-01-01T00:38:34;8.70;;;7.80;;
16326;SDS011;34812;49.846;9.610;2023-01-01T00:39:35;8.87;;;7.93;;
16326;SDS011;34812;49.846;9.610;2023-01-01T00:40:37;8.30;;;7.20;;
16326;SDS011;34812;49.846;9.610;2023-01-01T00:41:38;8.30;;;7.50;;
16326;SDS011;34812;49.846;9.610;2023-01-01T00:42:40;8.63;;;7.80;;
16326;SDS011;34812;49.846;9.610;2023-01-01T00:43:42;9.23;;;7.90;;
16326;SDS011;34812;49.846;9.610;2023-01-01T00:44:44;9.83;;;8.03;;
16326;SDS011;34812;49.846;9.610;2023-01-01T00:45:46;7.70;;;6.90;;
16326;SDS011;34812;49.846;9.610;2023-01-01T00:46:51;8.73;;;6.77;;
16326;SDS011;34812;49.846;9.610;2023-01-01T00:47:53;9.00;;;6.50;;
16326;SDS011;34812;49.846;9.610;2023-01-01T00:48:54;7.83;;;6.53;;
16326;SDS011;34812;49.846;9.610;2023-01-01T00:49:55;7.90;;;6.93;;
16326;SDS011;34812;49.846;9.610;2023-01-01T00:50:57;7.30;;;6.60;;
16326;SDS011;34812;49.846;9.610;2023-01-01T00:51:58;8.70;;;6.90;;
16326;SDS011;34812;49.846;9.610;2023-01-01T00:53:00;8.23;;;7.40;;
16326;SDS011;34812;49.846;9.610;2023-01-01T00:54:01;8.63;;;7.77;;
16326;SDS011;34812;49.846;9.610;2023-01-01T00:55:03;10.43;;;8.07;;
16326;SDS011;34812;49.846;9.610;2023-01-01T00:56:05;7.97;;;6.97;;
16326;SDS011;34812;49.846;9.610;2023-01-01T00:57:07;8.70;;;7.90;;
16326;SDS011;34812;49.846;9.610;2023-01-01T00:58:07;9.07;;;8.20;;
16326;SDS011;34812;49.846;9.610;2023-01-01T00:59:11;8.33;;;7.50;;
16326;SDS011;34812;49.846;9.610;2023-01-01T01:00:13;9.27;;;8.37;;
16326;SDS011;34812;49.846;9.610;2023-01-01T01:01:15;7.90;;;7.10;;
16326;SDS011;34812;49.846;9.610;2023-01-01T01:02:16;8.30;;;7.50;;
16326;SDS011;34812;49.846;9.610;2023-01-01T01:03:18;9.43;;;6.40;;
16326;SDS011;34812;49.846;9.610;2023-01-01T01:04:26;8.27;;;6.77;;
16326;SDS011;34812;49.846;9.610;2023-01-01T01:05:28;8.43;;;6.53;;
16326;SDS011;34812;49.846;9.610;2023-01-01T01:06:31;9.37;;;6.20;;
16326;SDS011;34812;49.846;9.610;2023-01-01T01:07:33;6.53;;;5.60;;
16326;SDS011;34812;49.846;9.610;2023-01-01T01:08:35;5.83;;;5.23;;
16326;SDS011;34812;49.846;9.610;2023-01-01T01:09:39;6.03;;;5.53;;
16326;SDS011;34812;49.846;9.610;2023-01-01T01:10:41;6.07;;;5.47;;
16326;SDS011;34812;49.846;9.610;2023-01-01T01:11:41;5.30;;;4.80;;
16326;SDS011;34812;49.846;9.610;2023-01-01T01:12:43;6.70;;;5.60;;
16326;SDS011;34812;49.846;9.610;2023-01-01T01:13:45;6.03;;;5.47;;
16326;SDS011;34812;49.846;9.610;2023-01-01T01:14:48;6.10;;;5.50;;
16326;SDS011;34812;49.846;9.610;2023-01-01T01:15:50;6.43;;;5.83;;
16326;SDS011;34812;49.846;9.610;2023-01-01T01:16:50;6.20;;;5.53;;
16326;SDS011;34812;49.846;9.610;2023-01-01T01:17:52;8.77;;;5.70;;
16326;SDS011;34812;49.846;9.610;2023-01-01T01:18:54;6.43;;;5.23;;
16326;SDS011;34812;49.846;9.610;2023-01-01T01:19:58;6.67;;;5.20;;
16326;SDS011;34812;49.846;9.610;2023-01-01T01:20:59;6.43;;;5.33;;
16326;SDS011;34812;49.846;9.610;2023-01-01T01:22:00;6.50;;;5.67;;
16326;SDS011;34812;49.846;9.610;2023-01-01T01:23:01;5.80;;;5.30;;
16326;SDS011;34812;49.846;9.610;2023-01-01T01:24:03;6.43;;;5.37;;
16326;SDS011;34812;49.846;9.610;2023-01-01T01:25:04;6.07;;;5.13;;
16326;SDS011;34812;49.846;9.610;2023-01-01T01:26:07;6.53;;;5.27;;
16326;SDS011;34812;49.846;9.610;2023-01-01T01:27:09;6.20;;;5.60;;
16326;SDS011;34812;49.846;9.610;2023-01-01T01:28:10;6.50;;;5.90;;
16326;SDS011;34812;49.846;9.610;2023-01-01T01:29:11;6.87;;;6.20;;
16326;SDS011;34812;49.846;9.610;2023-01-01T01:30:14;8.10;;;5.70;;
16326;SDS011;34812;49.846;9.610;2023-01-01T01:31:15;7.20;;;5.57;;
16326;SDS011;34812;49.846;9.610;2023-01-01T01:32:17;6.27;;;5.67;;
16326;SDS011;34812;49.846;9.610;2023-01-01T01:33:19;6.20;;;5.60;;
16326;SDS011;34812;49.846;9.610;2023-01-01T01:34:20;6.60;;;6.00;;
16326;SDS011;34812;49.846;9.610;2023-01-01T01:35:21;7.27;;;6.57;;
16326;SDS011;34812;49.846;9.610;2023-01-01T01:36:22;7.93;;;6.47;;
16326;SDS011;34812;49.846;9.610;2023-01-01T01:37:25;9.50;;;6.93;;
16326;SDS011;34812;49.846;9.610;2023-01-01T01:38:27;6.93;;;6.10;;
16326;SDS011;34812;49.846;9.610;2023-01-01T01:39:27;5.83;;;5.23;;
16326;SDS011;34812;49.846;9.610;2023-01-01T01:40:29;7.57;;;6.60;;
16326;SDS011;34812;49.846;9.610;2023-01-01T01:41:31;7.17;;;6.30;;
16326;SDS011;34812;49.846;9.610;2023-01-01T01:42:31;6.60;;;5.90;;
16326;SDS011;34812;49.846;9.610;2023-01-01T01:43:48;7.57;;;6.23;;
16326;SDS011;34812;49.846;9.610;2023-01-01T01:44:53;6.73;;;5.80;;
16326;SDS011;34812;49.846;9.610;2023-01-01T01:45:59;7.33;;;6.10;;
16326;SDS011;34812;49.846;9.610;2023-01-01T01:47:04;6.80;;;6.10;;
16326;SDS011;34812;49.846;9.610;2023-01-01T01:48:12;7.70;;;7.00;;
16326;SDS011;34812;49.846;9.610;2023-01-01T01:49:15;8.43;;;7.47;;
16326;SDS011;34812;49.846;9.610;2023-01-01T01:50:22;9.17;;;7.57;;
16326;SDS011;34812;49.846;9.610;2023-01-01T01:51:29;10.03;;;9.03;;
16326;SDS011;34812;49.846;9.610;2023-01-01T01:52:32;10.13;;;9.13;;
16326;SDS011;34812;49.846;9.610;2023-01-01T01:53:36;9.10;;;8.03;;
16326;SDS011;34812;49.846;9.610;2023-01-01T01:54:42;12.37;;;9.50;;
16326;SDS011;34812;49.846;9.610;2023-01-01T01:55:43;9.70;;;8.70;;
16326;SDS011;34812;49.846;9.610;2023-01-01T01:56:48;9.83;;;8.83;;
16326;SDS011;34812;49.846;9.610;2023-01-01T01:57:51;9.83;;;8.90;;
16326;SDS011;34812;49.846;9.610;2023-01-01T01:58:53;9.73;;;8.60;;
16326;SDS011;34812;49.846;9.610;2023-01-01T01:59:54;10.60;;;8.60;;
16326;SDS011;34812;49.846;9.610;2023-01-01T02:00:59;10.27;;;9.30;;
16326;SDS011;34812;49.846;9.610;2023-01-01T02:02:00;10.77;;;9.67;;
16326;SDS011;34812;49.846;9.610;2023-01-01T02:03:02;10.60;;;9.60;;
16326;SDS011;34812;49.846;9.610;2023-01-01T02:04:06;9.80;;;8.40;;
16326;SDS011;34812;49.846;9.610;2023-01-01T02:05:07;11.57;;;10.37;;
16326;SDS011;34812;49.846;9.610;2023-01-01T02:06:09;9.87;;;8.87;;
16326;SDS011;34812;49.846;9.610;2023-01-01T02:07:11;9.30;;;8.40;;
16326;SDS011;34812;49.846;9.610;2023-01-01T02:08:14;8.93;;;8.03;;
16326;SDS011;34812;49.846;9.610;2023-01-01T02:09:17;10.37;;;9.37;;
16326;SDS011;34812;49.846;9.610;2023-01-01T02:10:17;10.50;;;9.33;;
16326;SDS011;34812;49.846;9.610;2023-01-01T02:11:19;10.83;;;9.67;;
16326;SDS011;34812;49.846;9.610;2023-01-01T02:12:20;9.90;;;9.00;;
16326;SDS011;34812;49.846;9.610;2023-01-01T02:13:22;10.30;;;9.20;;
16326;SDS011;34812;49.846;9.610;2023-01-01T02:14:22;10.27;;;9.27;;
16326;SDS011;34812;49.846;9.610;2023-01-01T02:15:25;10.57;;;9.53;;
16326;SDS011;34812;49.846;9.610;2023-01-01T02:16:32;10.50;;;9.43;;
16326;SDS011;34812;49.846;9.610;2023-01-01T02:17:39;10.23;;;9.23;;
16326;SDS011;34812;49.846;9.610;2023-01-01T02:18:48;10.50;;;9.50;;
16326;SDS011;34812;49.846;9.610;2023-01-01T02:19:57;9.90;;;8.90;;
16326;SDS011;34812;49.846;9.610;2023-01-01T02:21:10;12.43;;;10.57;;
16326;SDS011;34812;49.846;9.610;2023-01-01T02:22:16;11.43;;;9.50;;
16326;SDS011;34812;49.846;9.610;2023-01-01T02:23:31;11.27;;;9.73;;
16326;SDS011;34812;49.846;9.610;2023-01-01T02:24:50;11.27;;;10.10;;
16326;SDS011;34812;49.846;9.610;2023-01-01T02:26:02;10.83;;;9.73;;
16326;SDS011;34812;49.846;9.610;2023-01-01T02:27:16;10.70;;;9.60;;
16326;SDS011;34812;49.846;9.610;2023-01-01T02:29:53;10.33;;;8.93;;
16326;SDS011;34812;49.846;9.610;2023-01-01T02:30:58;11.20;;;10.10;;
16326;SDS011;34812;49.846;9.610;2023-01-01T02:32:00;13.63;;;10.47;;
16326;SDS011;34812;49.846;9.610;2023-01-01T02:33:07;12.50;;;10.67;;
16326;SDS011;34812;49.846;9.610;2023-01-01T02:34:13;12.70;;;11.23;;
16326;SDS011;34812;49.846;9.610;2023-01-01T02:35:19;11.33;;;10.23;;
16326;SDS011;34812;49.846;9.610;2023-01-01T02:36:35;13.03;;;11.73;;
16326;SDS011;34812;49.846;9.610;2023-01-01T02:37:41;12.63;;;11.43;;
16326;SDS011;34812;49.846;9.610;2023-01-01T02:38:43;15.30;;;13.33;;
16326;SDS011;34812;49.846;9.610;2023-01-01T02:39:49;15.13;;;13.63;;
16326;SDS011;34812;49.846;9.610;2023-01-01T02:40:56;14.77;;;13.27;;
16326;SDS011;34812;49.846;9.610;2023-01-01T02:41:59;14.93;;;12.67;;
16326;SDS011;34812;49.846;9.610;2023-01-01T02:43:05;17.03;;;13.37;;
16326;SDS011;34812;49.846;9.610;2023-01-01T02:44:07;16.13;;;14.43;;
16326;SDS011;34812;49.846;9.610;2023-01-01T02:45:10;15.90;;;14.30;;
16326;SDS011;34812;49.846;9.610;2023-01-01T02:46:11;16.93;;;15.13;;
16326;SDS011;34812;49.846;9.610;2023-01-01T02:47:14;18.97;;;15.80;;
16326;SDS011;34812;49.846;9.610;2023-01-01T02:48:35;17.93;;;16.03;;
16326;SDS011;34812;49.846;9.610;2023-01-01T02:49:40;20.30;;;17.53;;
16326;SDS011;34812;49.846;9.610;2023-01-01T02:50:49;21.10;;;18.40;;
16326;SDS011;34812;49.846;9.610;2023-01-01T02:51:54;21.57;;;18.57;;
16326;SDS011;34812;49.846;9.610;2023-01-01T02:53:10;22.67;;;18.17;;
16326;SDS011;34812;49.846;9.610;2023-01-01T02:54:23;20.43;;;17.57;;
16326;SDS011;34812;49.846;9.610;2023-01-01T02:55:33;19.73;;;17.43;;
16326;SDS011;34812;49.846;9.610;2023-01-01T02:56:45;20.07;;;17.70;;
16326;SDS011;34812;49.846;9.610;2023-01-01T02:57:50;20.53;;;18.43;;
16326;SDS011;34812;49.846;9.610;2023-01-01T02:59:20;21.87;;;19.60;;
16326;SDS011;34812;49.846;9.610;2023-01-01T03:00:44;21.23;;;19.13;;
16326;SDS011;34812;49.846;9.610;2023-01-01T03:01:47;23.60;;;21.10;;
16326;SDS011;34812;49.846;9.610;2023-01-01T03:03:02;23.67;;;21.17;;
16326;SDS011;34812;49.846;9.610;2023-01-01T03:04:14;20.77;;;18.77;;
16326;SDS011;34812;49.846;9.610;2023-01-01T03:05:29;23.83;;;20.33;;
16326;SDS011;34812;49.846;9.610;2023-01-01T03:06:37;25.50;;;21.00;;
16326;SDS011;34812;49.846;9.610;2023-01-01T03:07:48;20.80;;;18.60;;
16326;SDS011;34812;49.846;9.610;2023-01-01T03:09:02;22.33;;;20.03;;
16326;SDS011;34812;49.846;9.610;2023-01-01T03:10:12;22.40;;;20.10;;
16326;SDS011;34812;49.846;9.610;2023-01-01T03:11:16;22.87;;;20.47;;
16326;SDS011;34812;49.846;9.610;2023-01-01T03:12:20;22.47;;;20.17;;
16326;SDS011;34812;49.846;9.610;2023-01-01T03:13:25;24.83;;;22.00;;
16326;SDS011;34812;49.846;9.610;2023-01-01T03:14:41;22.83;;;20.63;;
16326;SDS011;34812;49.846;9.610;2023-01-01T03:15:49;22.87;;;20.23;;
16326;SDS011;34812;49.846;9.610;2023-01-01T03:16:56;22.33;;;20.00;;
16326;SDS011;34812;49.846;9.610;2023-01-01T03:18:04;24.17;;;21.77;;
16326;SDS011;34812;49.846;9.610;2023-01-01T03:19:08;22.67;;;19.13;;
16326;SDS011;34812;49.846;9.610;2023-01-01T03:20:15;22.40;;;20.10;;
16326;SDS011;34812;49.846;9.610;2023-01-01T03:21:20;22.27;;;20.10;;
16326;SDS011;34812;49.846;9.610;2023-01-01T03:22:23;23.23;;;20.27;;
16326;SDS011;34812;49.846;9.610;2023-01-01T03:23:32;23.73;;;20.77;;
16326;SDS011;34812;49.846;9.610;2023-01-01T03:24:37;21.63;;;19.43;;
16326;SDS011;34812;49.846;9.610;2023-01-01T03:25:44;23.13;;;19.63;;
16326;SDS011;34812;49.846;9.610;2023-01-01T03:26:49;23.37;;;20.93;;
16326;SDS011;34812;49.846;9.610;2023-01-01T03:27:55;24.63;;;20.40;;
16326;SDS011;34812;49.846;9.610;2023-01-01T03:28:59;21.90;;;19.70;;
16326;SDS011;34812;49.846;9.610;2023-01-01T03:30:06;22.37;;;20.17;;
16326;SDS011;34812;49.846;9.610;2023-01-01T03:31:08;22.87;;;20.37;;
16326;SDS011;34812;49.846;9.610;2023-01-01T03:32:11;22.50;;;20.30;;
16326;SDS011;34812;49.846;9.610;2023-01-01T03:33:16;22.07;;;19.97;;
16326;SDS011;34812;49.846;9.610;2023-01-01T03:34:22;23.43;;;21.03;;
16326;SDS011;34812;49.846;9.610;2023-01-01T03:35:29;23.57;;;20.50;;
16326;SDS011;34812;49.846;9.610;2023-01-01T03:36:36;22.80;;;20.07;;
16326;SDS011;34812;49.846;9.610;2023-01-01T03:37:38;22.27;;;19.83;;
16326;SDS011;34812;49.846;9.610;2023-01-01T03:38:45;22.00;;;19.43;;
16326;SDS011;34812;49.846;9.610;2023-01-01T03:39:48;23.20;;;20.50;;
16326;SDS011;34812;49.846;9.610;2023-01-01T03:40:52;22.17;;;19.97;;
16326;SDS011;34812;49.846;9.610;2023-01-01T03:42:00;22.60;;;20.33;;
16326;SDS011;34812;49.846;9.610;2023-01-01T03:43:11;26.20;;;22.83;;
16326;SDS011;34812;49.846;9.610;2023-01-01T03:44:16;23.63;;;21.07;;
16326;SDS011;34812;49.846;9.610;2023-01-01T03:45:25;21.60;;;19.43;;
16326;SDS011;34812;49.846;9.610;2023-01-01T03:46:30;23.43;;;21.10;;
16326;SDS011;34812;49.846;9.610;2023-01-01T03:47:35;22.63;;;20.33;;
16326;SDS011;34812;49.846;9.610;2023-01-01T03:48:36;21.97;;;19.37;;
16326;SDS011;34812;49.846;9.610;2023-01-01T03:49:52;26.67;;;22.07;;
16326;SDS011;34812;49.846;9.610;2023-01-01T03:50:56;24.50;;;22.10;;
16326;SDS011;34812;49.846;9.610;2023-01-01T03:52:09;25.27;;;22.77;;
16326;SDS011;34812;49.846;9.610;2023-01-01T03:53:22;28.57;;;23.70;;
16326;SDS011;34812;49.846;9.610;2023-01-01T03:54:31;28.17;;;24.20;;
16326;SDS011;34812;49.846;9.610;2023-01-01T03:55:38;25.73;;;23.13;;
16326;SDS011;34812;49.846;9.610;2023-01-01T03:56:45;27.13;;;24.33;;
16326;SDS011;34812;49.846;9.610;2023-01-01T03:57:54;26.47;;;23.77;;
16326;SDS011;34812;49.846;9.610;2023-01-01T03:59:04;27.10;;;24.20;;
16326;SDS011;34812;49.846;9.610;2023-01-01T04:00:11;26.87;;;23.97;;
16326;SDS011;34812;49.846;9.610;2023-01-01T04:01:19;26.67;;;24.00;;
16326;SDS011;34812;49.846;9.610;2023-01-01T04:02:24;28.03;;;24.97;;
16326;SDS011;34812;49.846;9.610;2023-01-01T04:03:29;27.53;;;24.63;;
16326;SDS011;34812;49.846;9.610;2023-01-01T04:04:33;25.37;;;22.97;;
16326;SDS011;34812;49.846;9.610;2023-01-01T04:05:35;24.10;;;21.70;;
16326;SDS011;34812;49.846;9.610;2023-01-01T04:06:40;25.57;;;22.97;;
16326;SDS011;34812;49.846;9.610;2023-01-01T04:07:40;25.93;;;23.10;;
16326;SDS011;34812;49.846;9.610;2023-01-01T04:08:42;26.60;;;23.73;;
16326;SDS011;34812;49.846;9.610;2023-01-01T04:09:46;27.40;;;23.40;;
16326;SDS011;34812;49.846;9.610;2023-01-01T04:10:50;26.80;;;23.87;;
16326;SDS011;34812;49.846;9.610;2023-01-01T04:11:54;27.23;;;24.53;;
16326;SDS011;34812;49.846;9.610;2023-01-01T04:13:01;27.33;;;24.63;;
16326;SDS011;34812;49.846;9.610;2023-01-01T04:14:04;29.93;;;26.83;;
16326;SDS011;34812;49.846;9.610;2023-01-01T04:15:05;29.60;;;26.53;;
16326;SDS011;34812;49.846;9.610;2023-01-01T04:16:07;28.70;;;25.77;;
16326;SDS011;34812;49.846;9.610;2023-01-01T04:17:10;30.27;;;26.80;;
16326;SDS011;34812;49.846;9.610;2023-01-01T04:18:12;30.17;;;26.97;;
16326;SDS011;34812;49.846;9.610;2023-01-01T04:19:13;29.27;;;25.83;;
16326;SDS011;34812;49.846;9.610;2023-01-01T04:20:15;31.00;;;27.03;;
16326;SDS011;34812;49.846;9.610;2023-01-01T04:21:17;29.53;;;26.43;;
16326;SDS011;34812;49.846;9.610;2023-01-01T04:22:18;30.13;;;27.03;;
16326;SDS011;34812;49.846;9.610;2023-01-01T04:23:22;29.30;;;25.93;;
16326;SDS011;34812;49.846;9.610;2023-01-01T04:24:22;29.60;;;26.57;;
16326;SDS011;34812;49.846;9.610;2023-01-01T04:25:24;27.83;;;24.93;;
16326;SDS011;34812;49.846;9.610;2023-01-01T04:26:25;26.70;;;23.77;;
16326;SDS011;34812;49.846;9.610;2023-01-01T04:27:27;29.07;;;25.33;;
16326;SDS011;34812;49.846;9.610;2023-01-01T04:28:28;30.40;;;27.27;;
16326;SDS011;34812;49.846;9.610;2023-01-01T04:29:29;27.83;;;24.93;;
16326;SDS011;34812;49.846;9.610;2023-01-01T04:30:31;29.53;;;26.43;;
16326;SDS011;34812;49.846;9.610;2023-01-01T04:31:32;30.00;;;26.87;;
16326;SDS011;34812;49.846;9.610;2023-01-01T04:32:35;27.87;;;25.07;;
16326;SDS011;34812;49.846;9.610;2023-01-01T04:33:36;30.90;;;26.40;;
16326;SDS011;34812;49.846;9.610;2023-01-01T04:34:38;28.57;;;25.40;;
16326;SDS011;34812;49.846;9.610;2023-01-01T04:35:39;28.03;;;25.13;;
16326;SDS011;34812;49.846;9.610;2023-01-01T04:36:40;28.13;;;25.13;;
16326;SDS011;34812;49.846;9.610;2023-01-01T04:37:42;27.07;;;24.27;;
16326;SDS011;34812;49.846;9.610;2023-01-01T04:38:44;29.80;;;26.47;;
16326;SDS011;34812;49.846;9.610;2023-01-01T04:39:45;29.37;;;26.20;;
16326;SDS011;34812;49.846;9.610;2023-01-01T04:40:56;30.67;;;27.53;;
16326;SDS011;34812;49.846;9.610;2023-01-01T04:41:57;30.10;;;27.00;;
16326;SDS011;34812;49.846;9.610;2023-01-01T04:42:58;29.10;;;26.00;;
16326;SDS011;34812;49.846;9.610;2023-01-01T04:44:00;30.03;;;27.07;;
16326;SDS011;34812;49.846;9.610;2023-01-01T04:45:02;32.03;;;27.73;;
16326;SDS011;34812;49.846;9.610;2023-01-01T04:46:03;30.97;;;27.67;;
16326;SDS011;34812;49.846;9.610;2023-01-01T04:47:05;31.80;;;28.27;;
16326;SDS011;34812;49.846;9.610;2023-01-01T04:48:07;31.87;;;27.53;;
16326;SDS011;34812;49.846;9.610;2023-01-01T04:49:09;31.17;;;27.50;;
16326;SDS011;34812;49.846;9.610;2023-01-01T04:50:09;34.47;;;28.57;;
16326;SDS011;34812;49.846;9.610;2023-01-01T04:51:12;31.30;;;28.07;;
16326;SDS011;34812;49.846;9.610;2023-01-01T04:52:13;30.60;;;27.43;;
16326;SDS011;34812;49.846;9.610;2023-01-01T04:53:15;31.47;;;28.00;;
16326;SDS011;34812;49.846;9.610;2023-01-01T04:54:16;33.07;;;29.20;;
16326;SDS011;34812;49.846;9.610;2023-01-01T04:55:18;31.77;;;28.47;;
16326;SDS011;34812;49.846;9.610;2023-01-01T04:56:20;31.37;;;28.27;;
16326;SDS011;34812;49.846;9.610;2023-01-01T04:57:22;31.73;;;28.57;;
16326;SDS011;34812;49.846;9.610;2023-01-01T04:58:23;32.20;;;28.80;;
16326;SDS011;34812;49.846;9.610;2023-01-01T04:59:24;31.83;;;28.40;;
16326;SDS011;34812;49.846;9.610;2023-01-01T05:00:25;32.70;;;29.30;;
16326;SDS011;34812;49.846;9.610;2023-01-01T05:01:27;35.13;;;31.37;;
16326;SDS011;34812;49.846;9.610;2023-01-01T05:02:29;32.03;;;28.23;;
16326;SDS011;34812;49.846;9.610;2023-01-01T05:03:32;33.03;;;29.60;;
16326;SDS011;34812;49.846;9.610;2023-01-01T05:04:33;31.97;;;28.77;;
16326;SDS011;34812;49.846;9.610;2023-01-01T05:05:34;30.87;;;26.97;;
16326;SDS011;34812;49.846;9.610;2023-01-01T05:06:36;31.40;;;27.43;;
16326;SDS011;34812;49.846;9.610;2023-01-01T05:07:37;30.33;;;27.23;;
16326;SDS011;34812;49.846;9.610;2023-01-01T05:08:39;31.83;;;27.87;;
16326;SDS011;34812;49.846;9.610;2023-01-01T05:09:42;29.80;;;26.60;;
16326;SDS011;34812;49.846;9.610;2023-01-01T05:10:42;30.83;;;27.53;;
16326;SDS011;34812;49.846;9.610;2023-01-01T05:11:44;28.40;;;25.40;;
16326;SDS011;34812;49.846;9.610;2023-01-01T05:12:46;32.63;;;26.43;;
16326;SDS011;34812;49.846;9.610;2023-01-01T05:13:47;27.90;;;24.50;;
16326;SDS011;34812;49.846;9.610;2023-01-01T05:14:50;27.03;;;24.37;;
16326;SDS011;34812;49.846;9.610;2023-01-01T05:15:51;27.93;;;25.00;;
16326;SDS011;34812;49.846;9.610;2023-01-01T05:16:53;27.27;;;24.30;;
16326;SDS011;34812;49.846;9.610;2023-01-01T05:17:54;24.83;;;22.27;;
16326;SDS011;34812;49.846;9.610;2023-01-01T05:18:56;27.37;;;24.33;;
16326;SDS011;34812;49.846;9.610;2023-01-01T05:19:58;25.90;;;23.30;;
16326;SDS011;34812;49.846;9.610;2023-01-01T05:20:59;25.00;;;22.27;;
16326;SDS011;34812;49.846;9.610;2023-01-01T05:22:01;26.37;;;23.77;;
16326;SDS011;34812;49.846;9.610;2023-01-01T05:23:03;25.70;;;23.00;;
16326;SDS011;34812;49.846;9.610;2023-01-01T05:24:04;26.43;;;23.67;;
16326;SDS011;34812;49.846;9.610;2023-01-01T05:25:08;26.93;;;24.00;;
16326;SDS011;34812;49.846;9.610;2023-01-01T05:26:09;25.77;;;23.13;;
16326;SDS011;34812;49.846;9.610;2023-01-01T05:27:12;26.57;;;23.43;;
16326;SDS011;34812;49.846;9.610;2023-01-01T05:28:12;27.07;;;24.30;;
16326;SDS011;34812;49.846;9.610;2023-01-01T05:29:14;26.77;;;23.87;;
16326;SDS011;34812;49.846;9.610;2023-01-01T05:30:16;27.33;;;24.43;;
16326;SDS011;34812;49.846;9.610;2023-01-01T05:31:17;28.50;;;25.50;;
16326;SDS011;34812;49.846;9.610;2023-01-01T05:32:20;28.57;;;25.60;;
16326;SDS011;34812;49.846;9.610;2023-01-01T05:33:20;27.47;;;23.27;;
16326;SDS011;34812;49.846;9.610;2023-01-01T05:34:23;27.20;;;24.23;;
16326;SDS011;34812;49.846;9.610;2023-01-01T05:35:25;26.77;;;23.80;;
16326;SDS011;34812;49.846;9.610;2023-01-01T05:36:27;24.30;;;21.90;;
16326;SDS011;34812;49.846;9.610;2023-01-01T05:37:29;24.77;;;22.13;;
16326;SDS011;34812;49.846;9.610;2023-01-01T05:38:30;25.20;;;22.60;;
16326;SDS011;34812;49.846;9.610;2023-01-01T05:39:32;23.80;;;21.40;;
16326;SDS011;34812;49.846;9.610;2023-01-01T05:40:32;24.80;;;22.10;;
16326;SDS011;34812;49.846;9.610;2023-01-01T05:41:34;24.23;;;21.30;;
16326;SDS011;34812;49.846;9.610;2023-01-01T05:42:35;23.90;;;21.50;;
16326;SDS011;34812;49.846;9.610;2023-01-01T05:43:37;25.17;;;22.63;;
16326;SDS011;34812;49.846;9.610;2023-01-01T05:44:37;24.60;;;22.03;;
16326;SDS011;34812;49.846;9.610;2023-01-01T05:45:39;25.40;;;22.73;;
16326;SDS011;34812;49.846;9.610;2023-01-01T05:46:39;24.17;;;21.57;;
16326;SDS011;34812;49.846;9.610;2023-01-01T05:47:41;26.80;;;22.00;;
16326;SDS011;34812;49.846;9.610;2023-01-01T05:48:42;23.33;;;20.83;;
16326;SDS011;34812;49.846;9.610;2023-01-01T05:49:46;23.10;;;20.50;;
16326;SDS011;34812;49.846;9.610;2023-01-01T05:50:47;24.73;;;20.67;;
16326;SDS011;34812;49.846;9.610;2023-01-01T05:51:48;23.53;;;21.00;;
16326;SDS011;34812;49.846;9.610;2023-01-01T05:52:50;23.60;;;20.43;;
16326;SDS011;34812;49.846;9.610;2023-01-01T05:53:50;22.43;;;20.03;;
16326;SDS011;34812;49.846;9.610;2023-01-01T05:54:53;24.93;;;20.77;;
16326;SDS011;34812;49.846;9.610;2023-01-01T05:55:54;23.37;;;20.87;;
16326;SDS011;34812;49.846;9.610;2023-01-01T05:56:55;22.73;;;19.53;;
16326;SDS011;34812;49.846;9.610;2023-01-01T05:57:57;21.63;;;19.33;;
16326;SDS011;34812;49.846;9.610;2023-01-01T05:58:58;22.10;;;19.80;;
16326;SDS011;34812;49.846;9.610;2023-01-01T05:59:59;23.57;;;19.70;;
16326;SDS011;34812;49.846;9.610;2023-01-01T06:01:04;21.37;;;19.07;;
16326;SDS011;34812;49.846;9.610;2023-01-01T06:02:07;22.73;;;19.83;;
16326;SDS011;34812;49.846;9.610;2023-01-01T06:03:08;22.57;;;20.07;;
16326;SDS011;34812;49.846;9.610;2023-01-01T06:04:09;22.30;;;19.93;;
16326;SDS011;34812;49.846;9.610;2023-01-01T06:05:12;23.40;;;20.90;;
16326;SDS011;34812;49.846;9.610;2023-01-01T06:06:13;23.10;;;20.67;;
16326;SDS011;34812;49.846;9.610;2023-01-01T06:07:16;24.90;;;21.93;;
16326;SDS011;34812;49.846;9.610;2023-01-01T06:08:18;23.47;;;21.07;;
16326;SDS011;34812;49.846;9.610;2023-01-01T06:09:19;22.90;;;20.50;;
16326;SDS011;34812;49.846;9.610;2023-01-01T06:10:21;22.37;;;20.17;;
16326;SDS011;34812;49.846;9.610;2023-01-01T06:11:21;24.10;;;20.50;;
16326;SDS011;34812;49.846;9.610;2023-01-01T06:12:23;22.07;;;19.90;;
16326;SDS011;34812;49.846;9.610;2023-01-01T06:13:24;23.13;;;19.67;;
16326;SDS011;34812;49.846;9.610;2023-01-01T06:14:26;21.90;;;19.57;;
16326;SDS011;34812;49.846;9.610;2023-01-01T06:15:26;21.77;;;19.53;;
16326;SDS011;34812;49.846;9.610;2023-01-01T06:16:29;23.57;;;21.10;;